Mesquite, Nevada Weather observations

Data are for observation ending at time listed.
 Day   Time    Ave.   Ave.  Ave.  Vector   Max.   Stn.    Total    Solar   Ave.  
  of    of     Air    Rel.  Wind   Wind    Wind   Baro.  Precip.   Rad.    Soil  
Year   Day     Temp.  Hum.  Speed  Dir.    Gust   Pres.                    Temp. 
2014   (PST)    F      %     mph   deg.    mph     mb.     in.     W/m2     F   
------------------------------------------------------------------------------
 260   15:50   98.5    22    2.3   242      4.6   943.9    0.00     251    106.9
 260   16:00   98.2    22    2.5   195      7.2   943.8    0.00     225    106.9
 260   16:10  100.0    21    0.8   188      3.1   943.7    0.00     200    107.0
 260   16:20   99.7    21    0.4   213      1.5   943.7    0.00     175    106.9
 260   16:30   99.0    22    1.8   185      3.1   943.6    0.00     150    106.9
 260   16:40   98.1    22    2.3   220      5.0   943.4    0.00     126    106.8
 260   16:50   98.4    22    2.5   225      6.4   943.4    0.00     104    106.7
 260   17:00   97.2    23    3.2   255      6.5   943.3    0.00      81    106.5
 260   17:10   96.7    23    2.8   259      5.2   943.4    0.00      57    106.2
 260   17:20   95.6    25    1.9   277      3.5   943.4    0.00      26    105.9
 260   17:30   94.8    25    3.3   266      5.3   943.5    0.00       9    105.5
 260   17:40   94.2    26    3.0   290      4.8   943.5    0.00       7    105.2
 260   17:50   94.4    25    2.2   278      2.8   943.5    0.00       3    104.8
 260   18:00   93.9    26    1.5   226      2.9   943.4    0.00       3    104.4
 260   18:10   93.5    27    1.9   231      2.9   943.5    0.00       1    104.1
 260   18:20   93.3    26    1.8   231      3.1   943.5    0.00       1    103.7
 260   18:30   93.2    27    1.6   204      3.1   943.6    0.00       1    103.3
 260   18:40   92.7    27    1.8   195      2.5   943.7    0.00       0    103.0
 260   18:50   92.3    27    2.2   203      3.4   943.7    0.00       1    102.6
 260   19:00   92.1    27    1.9   189      3.7   943.8    0.00       1    102.3
 260   19:10   90.7    30    3.0   140      4.3   943.9    0.00       1    102.1
 260   19:20   87.9    35    2.3    83      3.1   944.0    0.00       1    101.7
 260   19:30   86.5    39    3.0    48      3.7   944.0    0.00       1    101.5
 260   19:40   85.9    40    2.4    42      3.3   944.1    0.00       1    101.2
 260   19:50   85.5    40    1.8    35      2.9   944.1    0.00       1    100.9
 260   20:00   85.5    40    1.9    84      3.7   944.2    0.00       1    100.6
 260   20:10   85.4    39    3.3    78      4.8   944.2    0.00       1    100.3
 260   20:20   85.8    38    2.1    89      3.9   944.2    0.00       1    100.1
 260   20:30   86.2    36    1.3    32      2.3   944.2    0.00       1    99.8
 260   20:40   86.3    36    1.6   137      4.6   944.2    0.00       1    99.6
 260   20:50   86.9    34    3.7   136      6.9   944.2    0.00       1    99.4
 260   21:00   86.5    35    4.2   128      6.6   944.2    0.00       1    99.1
 260   21:10   86.3    36    3.9   132      5.3   944.3    0.00       1    98.9
 260   21:20   86.6    35    3.1   157      4.2   944.4    0.00       1    98.7
 260   21:30   86.7    34    2.6   143      4.0   944.5    0.00       1    98.4
 260   21:40   86.7    35    1.0    73      2.0   944.5    0.00       1    98.3
 260   21:50   86.7    35    0.9   266      2.8   944.5    0.00       1    98.1
 260   22:00   86.1    38    1.3   344      2.4   944.5    0.00       1    97.9
 260   22:10   86.3    36    1.7     8      2.9   944.5    0.00       1    97.7
 260   22:20   86.0    37    1.1   120      2.6   944.5    0.00       1    97.5
 260   22:30   85.6    40    1.6   219      4.2   944.6    0.00       1    97.3
 260   22:40   83.8    42    1.4   126      3.5   944.6    0.00       1    97.1
 260   22:50   83.6    42    1.9    84      3.1   944.6    0.00       1    96.9
 260   23:00   83.2    44    1.8   147      4.2   944.7    0.00       1    96.7
 260   23:10   84.1    41    1.8    41      3.7   944.7    0.00       1    96.5
 260   23:20   81.5    48    3.0    67      4.8   944.8    0.00       1    96.4
 260   23:30   80.1    51    2.6    43      3.7   944.9    0.00       1    96.2
 260   23:40   80.2    50    2.3    39      4.2   944.9    0.00       1    96.0
 260   23:50   80.7    46    4.5    18      6.1   944.9    0.00       2    95.9
 261    0:00   80.4    47    3.5    56      5.0   945.0    0.00       1    95.7
 261    0:10   79.6    48    3.1    33      5.0   945.1    0.00       1    95.6
 261    0:20   79.0    51    4.2    79      5.8   945.1    0.00       1    95.4
 261    0:30   78.1    53    4.1    63      6.1   945.1    0.00       1    95.3
 261    0:40   78.2    53    3.1    51      3.9   945.1    0.00       1    95.1
 261    0:50   77.7    54    3.3    70      4.8   945.1    0.00       1    94.9
 261    1:00   77.4    53    2.4    76      4.9   945.0    0.00       1    94.7
 261    1:10   77.5    53    3.0    97      4.5   945.0    0.00       1    94.6
 261    1:20   77.4    53    3.2    92      4.1   945.0    0.00       1    94.4
 261    1:30   77.1    54    3.3    79      4.2   945.0    0.00       1    94.3
 261    1:40   77.2    53    2.4    28      2.9   944.9    0.00       1    94.1
 261    1:50   77.6    53    2.7    53      4.4   944.9    0.00       1    94.0
 261    2:00   77.1    55    3.7    55      4.5   944.8    0.00       1    93.8
 261    2:10   77.4    54    3.8    31      4.4   944.8    0.00       1    93.7
 261    2:20   78.5    53    2.6    45      4.2   944.9    0.00       1    93.5
 261    2:30   77.7    54    1.3    83      2.4   944.8    0.00       1    93.4
 261    2:40   77.4    54    0.6   174      1.9   944.8    0.00       1    93.2
 261    2:50   77.2    54    1.4   174      2.9   944.8    0.00       1    93.1
 261    3:00   77.4    53    1.3   263      2.2   944.8    0.00       1    93.0
 261    3:10   76.9    55    1.3   152      5.0   944.9    0.00       1    92.8
 261    3:20   76.0    56    1.9   107      3.9   944.9    0.00       1    92.6
 261    3:30   75.6    58    0.9    73      2.3   944.8    0.00       1    92.5
 261    3:40   75.8    57    1.5   357      2.1   944.9    0.00       1    92.4
 261    3:50   75.7    58    1.5    33      2.1   945.0    0.00       0    92.2
 261    4:00   76.3    56    0.6   330      1.5   945.0    0.00       1    92.1
 261    4:10   76.2    57    1.3   146      3.7   945.0    0.00       1    92.0
 261    4:20   75.4    60    2.5   106      3.9   945.1    0.00       0    91.8
 261    4:30   74.4    62    3.6   101      4.4   945.1    0.00       0    91.7
 261    4:40   74.2    61    2.0    93      2.8   945.1    0.00       0    91.6
 261    4:50   74.7    60    0.7    74      2.0   945.1    0.00       0    91.5
 261    5:00   74.6    62    2.0    71      4.2   945.2    0.00       0    91.4
 261    5:10   73.3    65    3.7    65      4.5   945.3    0.00       0    91.3
 261    5:20   72.9    67    3.3    68      4.0   945.3    0.00       0    91.1
 261    5:30   72.8    68    5.1    70      6.9   945.4    0.00       4    91.0
 261    5:40   73.6    65    6.9    48      9.7   945.4    0.00       6    90.9
 261    5:50   75.2    61    3.3    45      6.4   945.5    0.00       9    90.8
 261    6:00   75.9    59    0.9   100      3.2   945.7    0.00      38    90.7
 261    6:10   77.8    55    3.1    43      5.0   945.7    0.00      68    90.6
 261    6:20   79.5    51    1.9   290      3.5   945.8    0.00      90    90.4
 261    6:30   80.4    51    1.2   312      2.6   945.8    0.00     113    90.3
 261    6:40   80.8    49    3.1   253      4.4   945.8    0.00     136    90.3
 261    6:50   81.1    47    3.3   305      4.7   945.8    0.00     161    90.2
 261    7:00   82.9    43    2.3   308      3.9   945.8    0.00     182    90.1
 261    7:10   83.1    46    2.3   260      3.6   945.8    0.00      84    90.1
 261    7:20   83.1    47    2.4   223      4.2   945.7    0.00     235    90.0
 261    7:30   83.6    45    3.0   218      5.3   945.8    0.00     258    89.9
 261    7:40   84.5    45    3.3   212      4.9   945.8    0.00     282    89.9
 261    7:50   86.4    42    2.2   212      4.7   945.9    0.00     306    89.9
 261    8:00   87.5    41    2.7   196      5.5   946.0    0.00     328    89.9
 261    8:10   88.0    39    2.0   212      4.5   946.0    0.00     350    89.8
 261    8:20   89.0    37    2.7   216      5.6   946.0    0.00     372    89.9
 261    8:30   88.8    36    2.8   232      5.8   945.9    0.00     393    89.8
 261    8:40   90.3    32    2.5   323      7.0   945.9    0.00     414    89.9
 261    8:50   91.7    30    2.4    34      5.8   945.9    0.00     434    90.0
 261    9:00   92.3    30    2.5    50      4.7   945.8    0.00     453    90.1
 261    9:10   93.3    29    1.8    20      4.9   945.8    0.00     470    90.1
 261    9:20   91.8    31    3.3   297      5.5   945.7    0.00     487    90.2
 261    9:30   92.0    31    3.8   279      7.7   945.6    0.00     502    90.4
 261    9:40   91.8    31    2.5   321      6.0   945.5    0.00     517    90.6
 261    9:50   93.5    30    2.9   286      6.8   945.4    0.00     530    90.8
 261   10:00   92.5    30    2.5   296      6.4   945.3    0.00     543    91.1
 261   10:10   93.3    30    3.9   282      7.4   945.2    0.00     555    91.5
 261   10:20   92.9    31    3.9   234      8.0   945.1    0.00     565    91.9
 261   10:30   94.0    30    3.7   176      7.1   945.0    0.00     577    92.4
 261   10:40   94.8    29    1.7   165      4.5   944.9    0.00     594    92.9
 261   10:50   94.5    30    3.0   250      6.1   944.8    0.00     627    93.5
 261   11:00   93.9    31    5.8   236     10.3   944.7    0.00     520    94.2
 261   11:10   93.2    31    3.7   214      8.0   944.5    0.00     385    94.9
 261   11:20   93.3    31    4.7   241      8.6   944.4    0.00     363    95.5
 261   11:30   92.9    31    5.4   226      9.1   944.2    0.00     413    96.0
 261   11:40   93.7    31    4.3   238      8.8   944.1    0.00     576    96.5
 261   11:50   94.1    30    4.9   213      9.7   944.0    0.00     311    97.0
 261   12:00   92.6    32    4.2   247      8.0   943.9    0.00     337    97.4
 261   12:10   93.2    31    2.0   272      6.7   943.7    0.00     230    97.8
 261   12:20   93.1    32    3.6   262      8.3   943.5    0.00     202    98.1
 261   12:30   93.6    31    2.5   193      8.1   943.4    0.00     193    98.2
 261   12:40   94.3    31    1.9   192      5.0   943.2    0.00     226    98.3
 261   12:50   94.6    31    1.4   222      3.9   943.1    0.00     239    98.3
 261   13:00   94.8    30    2.6   136      6.6   942.9    0.00     207    98.4
 261   13:10   94.2    31    3.5   146      7.7   942.7    0.00     177    98.4
 261   13:20   94.5    30    3.2   258      7.1   942.6    0.00     182    98.5
 261   13:30   95.2    29    2.5   227      5.8   942.4    0.00     188    98.5
 261   13:40   94.9    30    5.6   132      8.7   942.3    0.00     169    98.5
 261   13:50   94.5    30    5.8   115     10.0   942.1    0.00     219    98.6
 261   14:00   94.9    30    5.3   162      8.2   942.0    0.00     207    98.6
 261   14:10   95.3    30    3.7   126      5.7   941.9    0.00     346    98.7
 261   14:20   96.0    25    2.9   246      6.9   941.8    0.00     210    98.8
 261   14:30   97.0    20    4.0   215      9.1   941.7    0.00     368    99.0
 261   14:40   98.2    19    4.8   219     11.0   941.6    0.00     497    99.2
 261   14:50   98.3    19    4.5   228      9.3   941.5    0.00     436    99.6
 261   15:00   98.0    20    4.3   248     11.5   941.4    0.00     397    100.0
 261   15:10   97.9    20    5.8   248     13.2   941.3    0.00     375    100.5
 261   15:20   98.6    19    6.0   236     11.8   941.3    0.00     359    100.9
 261   15:30   98.9    20    6.0   232     11.5   941.3    0.00     319    101.3
 261   15:40   98.9    18    5.1   231     12.1   941.2    0.00     289    101.6

Return to Mesquite, Nevada graphs page.


Western Regional Climate Center,wrcc@dri.edu